createdAt,value
2022-10-19T00:01:45.790Z,96393.69
2022-10-19T00:04:13.467Z,96395.03
2022-10-19T00:06:41.088Z,96396.63
2022-10-19T00:09:11.118Z,96394.97
2022-10-19T00:11:41.057Z,96398.53
2022-10-19T00:14:14.008Z,96388.72
2022-10-19T00:16:42.692Z,96389.53
2022-10-19T00:19:14.285Z,96388.97
2022-10-19T00:21:42.076Z,96390.31
2022-10-19T00:24:10.442Z,96395.78
2022-10-19T00:26:38.769Z,96395.78
2022-10-19T00:29:11.968Z,96397.69
2022-10-19T00:31:39.786Z,96396.88
2022-10-19T00:34:07.544Z,96391.66
2022-10-19T00:36:36.630Z,96392.72
2022-10-19T00:39:06.360Z,96399.25
2022-10-19T00:41:36.527Z,96391.59
2022-10-19T00:44:07.423Z,96389.69
2022-10-19T00:46:39.303Z,96382.69
2022-10-19T00:49:11.002Z,96386.78
2022-10-19T00:51:42.051Z,96388.41
2022-10-19T00:54:10.429Z,96388.34
2022-10-19T00:56:40.685Z,96378.31
2022-10-19T00:59:09.873Z,96381.88
2022-10-19T01:01:38.881Z,96377.25
2022-10-19T01:04:06.769Z,96382.72
2022-10-19T01:06:35.046Z,96379.16
2022-10-19T01:09:02.681Z,96374.78
2022-10-19T01:11:44.324Z,96376.16
2022-10-19T01:14:29.731Z,96371.78
2022-10-19T01:17:13.964Z,96369.06
2022-10-19T01:20:22.816Z,96373.44
2022-10-19T01:23:06.455Z,96376.72
2022-10-19T01:25:50.805Z,96376.41
2022-10-19T01:28:30.018Z,96367.41
2022-10-19T01:31:02.865Z,96362.75
2022-10-19T01:33:43.387Z,96359.50
2022-10-19T01:36:22.029Z,96357.63
2022-10-19T01:38:55.504Z,96361.16
2022-10-19T01:41:31.097Z,96357.13
2022-10-19T01:44:02.786Z,96350.59
2022-10-19T01:46:38.006Z,96353.34
2022-10-19T01:49:12.272Z,96351.16
2022-10-19T01:51:46.846Z,96349.88
2022-10-19T01:54:17.971Z,96353.69
2022-10-19T01:56:48.728Z,96348.78
2022-10-19T01:59:20.200Z,96349.81
2022-10-19T02:01:52.336Z,96352.06
2022-10-19T02:04:22.241Z,96354.50
2022-10-19T02:06:51.828Z,96356.44
2022-10-19T02:09:20.172Z,96353.94
2022-10-19T02:11:51.331Z,96359.34
2022-10-19T02:14:25.205Z,96354.69
2022-10-19T02:17:00.441Z,96368.31
2022-10-19T02:19:28.124Z,96357.41
2022-10-19T02:21:57.342Z,96357.13
2022-10-19T02:24:25.121Z,96357.06
2022-10-19T02:26:54.349Z,96355.13
2022-10-19T02:29:22.322Z,96353.22
2022-10-19T02:31:50.439Z,96350.47
2022-10-19T02:34:19.533Z,96349.88
2022-10-19T02:36:47.333Z,96345.50
2022-10-19T02:39:15.187Z,96339.19
2022-10-19T02:41:48.835Z,96340.84
2022-10-19T02:44:23.290Z,96340.31
2022-10-19T02:46:55.777Z,96341.69
2022-10-19T02:49:25.736Z,96340.03
2022-10-19T02:51:59.613Z,96338.09
2022-10-19T02:54:27.975Z,96341.94
2022-10-19T02:56:55.779Z,96337.78
2022-10-19T02:59:23.479Z,96339.66
2022-10-19T03:01:51.213Z,96333.38
2022-10-19T03:04:19.148Z,96337.00
2022-10-19T03:06:48.437Z,96337.50
2022-10-19T03:09:16.128Z,96335.91
2022-10-19T03:11:43.767Z,96332.13
2022-10-19T03:14:11.627Z,96337.28
2022-10-19T03:16:39.313Z,96333.78
2022-10-19T03:19:07.609Z,96334.34
2022-10-19T03:21:36.013Z,96327.25
2022-10-19T03:24:05.433Z,96328.59
2022-10-19T03:26:33.122Z,96327.25
2022-10-19T03:29:01.220Z,96328.88
2022-10-19T03:31:28.892Z,96329.16
2022-10-19T03:33:56.674Z,96322.13
2022-10-19T03:36:25.802Z,96317.44
2022-10-19T03:38:54.529Z,96319.13
2022-10-19T03:41:25.502Z,96316.13
2022-10-19T03:43:53.624Z,96315.03
2022-10-19T03:46:21.696Z,96312.59
2022-10-19T03:48:49.881Z,96310.25
2022-10-19T03:51:18.982Z,96313.28
2022-10-19T03:53:47.624Z,96307.84
2022-10-19T03:56:17.865Z,96307.84
2022-10-19T03:58:48.677Z,96307.03
2022-10-19T04:01:18.152Z,96303.47
2022-10-19T04:03:46.160Z,96306.25
2022-10-19T04:06:18.350Z,96301.91
2022-10-19T04:08:50.291Z,96302.47
2022-10-19T04:11:20.275Z,96301.38
2022-10-19T04:13:50.630Z,96308.47
2022-10-19T04:16:19.738Z,96307.94
2022-10-19T04:18:48.226Z,96309.56
2022-10-19T04:21:23.929Z,96313.38
2022-10-19T04:23:53.445Z,96308.75
2022-10-19T04:26:21.607Z,96310.09
2022-10-19T04:28:50.919Z,96310.91
2022-10-19T04:31:18.705Z,96306.00
2022-10-19T04:36:14.477Z,96299.19
2022-10-19T04:38:42.189Z,96303.53
2022-10-19T04:41:11.747Z,96298.09
2022-10-19T04:43:40.037Z,96294.50
2022-10-19T04:46:10.622Z,96294.22
2022-10-19T04:48:39.425Z,96294.19
2022-10-19T04:51:07.333Z,96296.91
2022-10-19T04:53:35.977Z,96296.91
2022-10-19T04:56:06.604Z,96293.91
2022-10-19T04:58:34.401Z,96290.34
2022-10-19T05:01:10.582Z,96286.25
2022-10-19T05:03:38.786Z,96293.06
2022-10-19T05:06:07.016Z,96288.66
2022-10-19T05:08:34.843Z,96290.28
2022-10-19T05:11:03.334Z,96284.00
2022-10-19T05:13:32.422Z,96295.16
2022-10-19T05:16:01.263Z,96284.22
2022-10-19T05:18:33.256Z,96278.22
2022-10-19T05:21:05.767Z,96273.88
2022-10-19T05:23:34.123Z,96271.97
2022-10-19T05:26:03.484Z,96280.91
2022-10-19T05:28:31.997Z,96278.16
2022-10-19T05:31:06.913Z,96278.66
2022-10-19T05:33:36.453Z,96278.38
2022-10-19T05:36:15.258Z,96281.13
2022-10-19T05:38:43.189Z,96274.81
2022-10-19T05:41:11.274Z,96274.47
2022-10-19T05:43:39.049Z,96272.56
2022-10-19T05:46:08.273Z,96275.28
2022-10-19T05:48:37.638Z,96275.28
2022-10-19T05:51:06.955Z,96273.34
2022-10-19T05:53:35.702Z,96273.34
2022-10-19T05:56:06.052Z,96271.94
2022-10-19T05:58:34.231Z,96282.03
2022-10-19T06:01:02.787Z,96275.78
2022-10-19T06:03:30.787Z,96276.00
2022-10-19T06:05:59.852Z,96274.59
2022-10-19T06:08:27.615Z,96276.47
2022-10-19T06:11:06.292Z,96278.88
2022-10-19T06:13:33.974Z,96281.25
2022-10-19T06:16:01.715Z,96274.81
2022-10-19T06:18:29.649Z,96281.06
2022-10-19T06:20:57.357Z,96285.91
2022-10-19T06:23:26.546Z,96280.47
2022-10-19T06:25:54.312Z,96285.38
2022-10-19T06:28:21.977Z,96277.75
2022-10-19T06:30:49.700Z,96286.19
2022-10-19T06:33:17.472Z,96291.56
2022-10-19T06:35:45.374Z,96291.19
2022-10-19T06:38:13.878Z,96289.31
2022-10-19T06:40:42.976Z,96287.34
2022-10-19T06:43:10.709Z,96294.38
2022-10-19T06:45:39.249Z,96298.34
2022-10-19T06:48:07.949Z,96297.44
2022-10-19T06:50:35.711Z,96300.97
2022-10-19T06:53:03.412Z,96300.97
2022-10-19T06:55:31.066Z,96306.75
2022-10-19T06:58:01.738Z,96307.56
2022-10-19T07:00:29.636Z,96303.38
2022-10-19T07:02:59.306Z,96302.78
2022-10-19T07:05:27.122Z,96311.19
2022-10-19T07:07:54.839Z,96309.97
2022-10-19T07:10:22.549Z,96312.44
2022-10-19T07:12:50.288Z,96313.34
2022-10-19T07:15:19.405Z,96308.94
2022-10-19T07:17:47.187Z,96303.66
2022-10-19T07:20:14.940Z,96305.97
2022-10-19T07:22:42.690Z,96304.78
2022-10-19T07:25:10.526Z,96304.72
2022-10-19T07:27:40.143Z,96301.63
2022-10-19T07:30:09.005Z,96298.19
2022-10-19T07:32:38.107Z,96300.25
2022-10-19T07:35:06.881Z,96293.81
2022-10-19T07:37:34.988Z,96297.78
2022-10-19T07:40:03.003Z,96295.56
2022-10-19T07:42:31.294Z,96295.38
2022-10-19T07:44:59.053Z,96296.81
2022-10-19T07:47:26.771Z,96287.19
2022-10-19T07:49:55.871Z,96287.13
2022-10-19T07:52:23.595Z,96299.09
2022-10-19T07:54:51.271Z,96298.53
2022-10-19T07:57:19.576Z,96297.19
2022-10-19T07:59:47.292Z,96295.69
2022-10-19T08:02:17.011Z,96295.19
2022-10-19T08:05:03.146Z,96296.50
2022-10-19T08:07:35.505Z,96291.03
2022-10-19T08:10:03.308Z,96294.78
2022-10-19T08:12:31.232Z,96288.63
2022-10-19T08:14:59.175Z,96290.13
2022-10-19T08:17:26.989Z,96288.41
2022-10-19T08:19:54.694Z,96302.94
2022-10-19T08:22:22.454Z,96293.59
2022-10-19T08:24:51.607Z,96290.84
2022-10-19T08:27:19.366Z,96295.03
2022-10-19T08:29:47.094Z,96287.00
2022-10-19T08:32:14.751Z,96289.91
2022-10-19T08:34:42.786Z,96290.13
2022-10-19T08:37:20.154Z,96289.13
2022-10-19T08:39:59.502Z,96284.41
2022-10-19T08:42:35.192Z,96288.50
2022-10-19T08:45:44.228Z,96289.28
2022-10-19T08:48:29.571Z,96276.41
2022-10-19T08:50:59.400Z,96282.19
2022-10-19T08:53:35.094Z,96284.47
2022-10-19T08:56:38.996Z,96276.31
2022-10-19T08:59:15.000Z,96274.63
2022-10-19T09:01:47.863Z,96275.44
2022-10-19T09:04:22.682Z,96281.69
2022-10-19T09:07:14.016Z,96285.34
2022-10-19T09:12:32.851Z,96277.28
2022-10-19T09:15:04.623Z,96279.72
2022-10-19T09:17:33.369Z,96278.50
2022-10-19T09:20:14.162Z,96275.75
2022-10-19T09:22:43.565Z,96285.91
2022-10-19T09:25:16.269Z,96280.78
2022-10-19T09:27:48.471Z,96270.63
2022-10-19T09:30:20.014Z,96277.06
2022-10-19T09:32:49.882Z,96274.19
2022-10-19T09:35:27.360Z,96274.69
2022-10-19T09:37:56.436Z,96278.25
2022-10-19T09:40:27.088Z,96274.50
2022-10-19T09:42:58.530Z,96277.00
2022-10-19T09:45:35.580Z,96281.88
2022-10-19T09:48:12.838Z,96290.06
2022-10-19T09:50:44.582Z,96288.13
2022-10-19T09:53:20.154Z,96288.75
2022-10-19T09:58:29.169Z,96289.78
2022-10-19T10:01:00.364Z,96286.66
2022-10-19T10:03:30.998Z,96288.22
2022-10-19T10:06:03.184Z,96288.81
2022-10-19T10:08:34.486Z,96296.13
2022-10-19T10:11:08.189Z,96291.19
2022-10-19T10:13:42.694Z,96291.31
2022-10-19T10:16:12.692Z,96286.34
2022-10-19T10:18:52.209Z,96287.75
2022-10-19T10:21:25.584Z,96287.25
2022-10-19T10:24:02.281Z,96293.44
2022-10-19T10:26:30.234Z,96294.66
2022-10-19T10:29:01.411Z,96289.91
2022-10-19T10:31:31.398Z,96290.81
2022-10-19T10:34:12.226Z,96281.97
2022-10-19T10:36:52.194Z,96280.44
2022-10-19T10:39:20.200Z,96273.41
2022-10-19T10:41:49.918Z,96274.47
2022-10-19T10:44:23.089Z,96274.78
2022-10-19T10:46:56.753Z,96268.13
2022-10-19T10:49:26.773Z,96275.59
2022-10-19T10:51:57.834Z,96262.50
2022-10-19T10:54:26.972Z,96273.97
2022-10-19T10:57:12.095Z,96268.63
2022-10-19T10:59:50.314Z,96258.06
2022-10-19T11:02:30.076Z,96253.31
2022-10-19T11:05:02.628Z,96255.94
2022-10-19T11:07:33.281Z,96259.63
2022-10-19T11:10:09.789Z,96249.25
2022-10-19T11:12:40.670Z,96240.00
2022-10-19T11:15:18.381Z,96241.44
2022-10-19T11:17:56.657Z,96227.09
2022-10-19T11:20:30.321Z,96235.63
2022-10-19T11:23:07.352Z,96237.44
2022-10-19T11:25:47.135Z,96225.88
2022-10-19T11:28:31.097Z,96223.34
2022-10-19T11:31:07.910Z,96226.19
2022-10-19T11:33:49.958Z,96217.31
2022-10-19T11:36:32.916Z,96211.41
2022-10-19T11:39:20.936Z,96211.00
2022-10-19T11:41:59.283Z,96207.03
2022-10-19T11:44:40.766Z,96204.50
2022-10-19T11:47:30.239Z,96195.31
2022-10-19T11:52:50.589Z,96179.28
2022-10-19T11:55:27.133Z,96173.28
2022-10-19T11:58:01.345Z,96178.19
2022-10-19T12:00:40.150Z,96171.25
2022-10-19T12:03:37.602Z,96177.56
2022-10-19T12:06:13.569Z,96165.72
2022-10-19T12:08:56.226Z,96169.75
2022-10-19T12:11:44.679Z,96164.94
2022-10-19T12:14:16.880Z,96166.53
2022-10-19T12:16:49.642Z,96156.28
2022-10-19T12:19:23.587Z,96164.03
2022-10-19T12:21:54.761Z,96161.31
2022-10-19T12:24:25.827Z,96157.78
2022-10-19T12:26:55.877Z,96149.72
2022-10-19T12:29:26.669Z,96140.63
2022-10-19T12:31:56.365Z,96141.13
2022-10-19T12:34:37.805Z,96134.03
2022-10-19T12:37:12.743Z,96122.53
2022-10-19T12:39:46.322Z,96125.44
2022-10-19T12:42:24.229Z,96127.53
2022-10-19T12:45:19.605Z,96125.72
2022-10-19T12:48:24.566Z,96123.63
2022-10-19T12:51:13.065Z,96127.03
2022-10-19T12:53:44.268Z,96116.06
2022-10-19T12:56:18.516Z,96112.97
2022-10-19T12:58:51.110Z,96113.94
2022-10-19T13:01:22.892Z,96110.38
2022-10-19T13:03:54.579Z,96110.03
2022-10-19T13:06:35.165Z,96103.59
2022-10-19T13:09:06.214Z,96102.44
2022-10-19T13:14:28.173Z,96097.09
2022-10-19T13:17:01.241Z,96089.09
2022-10-19T13:19:29.755Z,96084.59
2022-10-19T13:22:29.916Z,96087.47
2022-10-19T13:25:23.505Z,96089.81
2022-10-19T13:27:51.878Z,96087.94
2022-10-19T13:31:06.071Z,96078.06
2022-10-19T13:33:50.897Z,96067.69
2022-10-19T13:36:19.582Z,96080.34
2022-10-19T13:39:03.723Z,96070.03
2022-10-19T13:41:50.355Z,96068.00
2022-10-19T13:44:33.789Z,96073.41
2022-10-19T13:47:28.404Z,96064.28
2022-10-19T13:50:13.685Z,96071.56
2022-10-19T13:53:09.878Z,96065.94
2022-10-19T13:55:56.469Z,96065.56
2022-10-19T13:59:16.066Z,96056.63
2022-10-19T14:01:54.674Z,96052.88
2022-10-19T14:04:36.025Z,96037.53
2022-10-19T14:07:09.001Z,96033.88
2022-10-19T14:09:54.097Z,96029.81
2022-10-19T14:12:25.361Z,96034.59
2022-10-19T14:14:54.367Z,96040.00
2022-10-19T14:17:25.503Z,96042.66
2022-10-19T14:19:55.626Z,96032.06
2022-10-19T14:22:30.009Z,96032.75
2022-10-19T14:25:02.798Z,96027.06
2022-10-19T14:27:31.581Z,96025.91
2022-10-19T14:29:59.713Z,96027.56
2022-10-19T14:32:30.444Z,96025.88
2022-10-19T14:37:33.043Z,96027.56
2022-10-19T14:40:04.659Z,96025.75
2022-10-19T14:42:41.114Z,96020.09
2022-10-19T14:45:18.275Z,96021.09
2022-10-19T14:47:54.777Z,96015.41
2022-10-19T14:50:25.287Z,96011.22
2022-10-19T14:52:58.096Z,96008.28
2022-10-19T14:55:31.009Z,96003.25
2022-10-19T14:57:59.204Z,96018.28
2022-10-19T15:00:29.949Z,96006.91
2022-10-19T15:03:01.756Z,96013.94
2022-10-19T15:05:32.131Z,96008.22
2022-10-19T15:08:08.793Z,96010.03
2022-10-19T15:10:43.786Z,96014.16
2022-10-19T15:13:23.867Z,96012.91
2022-10-19T15:15:55.895Z,96016.38
2022-10-19T15:18:47.565Z,96019.47
2022-10-19T15:21:16.783Z,96021.78
2022-10-19T15:23:47.465Z,96009.44
2022-10-19T15:26:19.415Z,96018.59
2022-10-19T15:28:48.221Z,96013.22
2022-10-19T15:31:20.390Z,96018.69
2022-10-19T15:33:51.855Z,96015.59
2022-10-19T15:36:21.438Z,96014.97
2022-10-19T15:38:50.918Z,96015.09
2022-10-19T15:41:28.203Z,96011.94
2022-10-19T15:43:58.884Z,96001.81
2022-10-19T15:46:31.491Z,96002.41
2022-10-19T15:49:07.128Z,96006.50
2022-10-19T15:51:38.962Z,96000.63
2022-10-19T15:54:08.294Z,96007.44
2022-10-19T15:56:37.525Z,96006.63
2022-10-19T15:59:07.268Z,96008.53
2022-10-19T16:01:35.333Z,96009.97
2022-10-19T16:04:06.142Z,96014.41
2022-10-19T16:06:37.047Z,96013.69
2022-10-19T16:09:05.246Z,96011.59
2022-10-19T16:11:34.670Z,96014.03
2022-10-19T16:14:02.527Z,96007.13
2022-10-19T16:16:32.677Z,96002.25
2022-10-19T16:19:01.470Z,95999.81
2022-10-19T16:21:33.542Z,96009.00
2022-10-19T16:24:01.382Z,96009.97
2022-10-19T16:26:29.424Z,96013.75
2022-10-19T16:28:57.360Z,96017.13
2022-10-19T16:31:25.471Z,96020.09
2022-10-19T16:33:53.185Z,96014.28
2022-10-19T16:36:21.030Z,96013.63
2022-10-19T16:38:50.151Z,96019.19
2022-10-19T16:41:18.027Z,96024.78
2022-10-19T16:43:48.025Z,96030.56
2022-10-19T16:46:15.985Z,96034.69
2022-10-19T16:48:43.650Z,96039.75
2022-10-19T16:51:30.691Z,96033.53
2022-10-19T16:54:00.415Z,96031.75
2022-10-19T16:56:30.222Z,96032.34
2022-10-19T16:59:01.761Z,96035.72
2022-10-19T17:01:30.442Z,96038.25
2022-10-19T17:03:58.976Z,96034.69
2022-10-19T17:06:27.991Z,96033.56
2022-10-19T17:11:46.856Z,96039.06
2022-10-19T17:14:14.572Z,96031.88
2022-10-19T17:16:42.292Z,96029.03
2022-10-19T17:19:11.758Z,96039.22
2022-10-19T17:21:42.311Z,96039.94
2022-10-19T17:24:20.172Z,96038.63
2022-10-19T17:26:51.738Z,96027.56
2022-10-19T17:29:20.169Z,96023.94
2022-10-19T17:31:48.112Z,96017.31
2022-10-19T17:34:16.119Z,96020.09
2022-10-19T17:36:45.748Z,96020.84
2022-10-19T17:39:17.645Z,96018.41
2022-10-19T17:41:46.240Z,96015.03
2022-10-19T17:44:15.892Z,96020.69
2022-10-19T17:46:44.216Z,96012.19
2022-10-19T17:49:12.506Z,96005.34
2022-10-19T17:51:40.821Z,96005.34
2022-10-19T17:54:10.253Z,96005.84
2022-10-19T17:56:38.988Z,95999.06
2022-10-19T17:59:07.931Z,96000.34
2022-10-19T18:01:37.286Z,96001.72
2022-10-19T18:04:05.947Z,96004.97
2022-10-19T18:06:36.306Z,96003.81
2022-10-19T18:09:06.766Z,96015.66
2022-10-19T18:11:38.445Z,96016.00
2022-10-19T18:14:07.871Z,96011.25
2022-10-19T18:16:38.674Z,96007.03
2022-10-19T18:19:09.808Z,96009.94
2022-10-19T18:21:39.795Z,96022.88
2022-10-19T18:24:12.720Z,96014.28
2022-10-19T18:26:42.978Z,96021.19
2022-10-19T18:29:13.957Z,96018.63
2022-10-19T18:31:43.181Z,96013.50
2022-10-19T18:34:14.769Z,96017.97
2022-10-19T18:36:42.842Z,96021.59
2022-10-19T18:39:12.339Z,96022.75
2022-10-19T18:41:40.611Z,96027.47
2022-10-19T18:44:09.850Z,96028.59
2022-10-19T18:46:38.295Z,96028.38
2022-10-19T18:49:08.907Z,96021.41
2022-10-19T18:51:36.967Z,96019.28
2022-10-19T18:54:05.021Z,96024.78
2022-10-19T18:56:33.338Z,96025.66
2022-10-19T18:59:01.022Z,96022.16
2022-10-19T19:01:29.748Z,96021.94
2022-10-19T19:03:58.730Z,96025.75
2022-10-19T19:06:31.557Z,96014.59
2022-10-19T19:09:00.839Z,96014.63
2022-10-19T19:11:32.947Z,96014.16
2022-10-19T19:14:06.174Z,96001.72
2022-10-19T19:16:36.677Z,96004.72
2022-10-19T19:19:07.824Z,96007.44
2022-10-19T19:21:37.471Z,96000.41
2022-10-19T19:24:07.670Z,96005.84
2022-10-19T19:26:41.070Z,96000.44
2022-10-19T19:29:08.904Z,95994.75
2022-10-19T19:31:37.096Z,95994.19
2022-10-19T19:34:06.291Z,95993.38
2022-10-19T19:36:34.056Z,95988.50
2022-10-19T19:39:03.330Z,95983.91
2022-10-19T19:41:34.010Z,95985.81
2022-10-19T19:44:01.734Z,96006.72
2022-10-19T19:46:29.493Z,95993.13
2022-10-19T19:49:00.887Z,95989.63
2022-10-19T19:51:30.117Z,96000.19
2022-10-19T19:53:58.560Z,95996.66
2022-10-19T19:56:28.811Z,95990.47
2022-10-19T19:58:57.500Z,95991.00
2022-10-19T20:01:27.094Z,95984.50
2022-10-19T20:03:55.834Z,95990.47
2022-10-19T20:06:25.911Z,95988.03
2022-10-19T20:08:54.518Z,95987.50
2022-10-19T20:11:22.655Z,95985.03
2022-10-19T20:13:51.974Z,95980.16
2022-10-19T20:16:23.858Z,95993.44
2022-10-19T20:18:57.707Z,95986.66
2022-10-19T20:21:27.544Z,95987.22
2022-10-19T20:23:55.183Z,95980.97
2022-10-19T20:26:24.529Z,95980.69
2022-10-19T20:28:54.275Z,95982.31
2022-10-19T20:31:22.897Z,95985.56
2022-10-19T20:33:50.640Z,95977.69
2022-10-19T20:36:20.651Z,95978.50
2022-10-19T20:38:50.346Z,95980.13
2022-10-19T20:41:19.057Z,95980.63
2022-10-19T20:43:47.280Z,95973.88
2022-10-19T20:46:18.964Z,95976.03
2022-10-19T20:48:46.732Z,95975.75
2022-10-19T20:51:16.263Z,95965.72
2022-10-19T20:53:46.183Z,95966.00
2022-10-19T20:56:16.262Z,95976.31
2022-10-19T20:58:45.156Z,95976.31
2022-10-19T21:01:15.340Z,95980.09
2022-10-19T21:03:48.320Z,95961.91
2022-10-19T21:06:16.468Z,95958.38
2022-10-19T21:08:45.496Z,95963.78
2022-10-19T21:11:14.708Z,95958.59
2022-10-19T21:13:42.560Z,95965.13
2022-10-19T21:16:11.758Z,95961.06
2022-10-19T21:18:39.999Z,95958.06
2022-10-19T21:21:18.143Z,95964.25
2022-10-19T21:23:47.408Z,95960.72
2022-10-19T21:26:15.421Z,95958.53
2022-10-19T21:28:47.573Z,95956.09
2022-10-19T21:31:15.659Z,95954.72
2022-10-19T21:33:43.443Z,95957.16
2022-10-19T21:36:12.598Z,95953.63
2022-10-19T21:38:44.691Z,95955.56
2022-10-19T21:41:15.693Z,95953.41
2022-10-19T21:43:43.464Z,95963.91
2022-10-19T21:46:13.602Z,95963.06
2022-10-19T21:48:41.797Z,95960.84
2022-10-19T21:51:21.346Z,95957.00
2022-10-19T21:53:50.963Z,95953.47
2022-10-19T21:56:18.699Z,95941.81
2022-10-19T21:58:46.769Z,95935.56
2022-10-19T22:01:15.055Z,95938.81
2022-10-19T22:03:42.904Z,95926.59
2022-10-19T22:06:10.978Z,95937.69
2022-10-19T22:08:39.207Z,95925.53
2022-10-19T22:11:10.377Z,95925.53
2022-10-19T22:13:38.591Z,95921.47
2022-10-19T22:16:07.515Z,95925.53
2022-10-19T22:18:35.956Z,95914.69
2022-10-19T22:21:05.124Z,95920.13
2022-10-19T22:23:33.147Z,95923.09
2022-10-19T22:26:01.150Z,95922.00
2022-10-19T22:28:30.191Z,95929.31
2022-10-19T22:30:59.753Z,95916.34
2022-10-19T22:33:27.352Z,95906.28
2022-10-19T22:35:56.581Z,95897.59
2022-10-19T22:38:24.667Z,95889.16
2022-10-19T22:40:52.357Z,95879.16
2022-10-19T22:43:20.506Z,95877.84
2022-10-19T22:45:50.363Z,95877.84
2022-10-19T22:48:18.892Z,95874.06
2022-10-19T22:50:47.582Z,95877.84
2022-10-19T22:53:15.342Z,95883.78
2022-10-19T22:55:43.011Z,95878.09
2022-10-19T23:04:55.654Z,95881.84
2022-10-19T23:07:25.942Z,95886.78
2022-10-19T23:09:53.596Z,95889.28
2022-10-19T23:12:21.412Z,95885.56
2022-10-19T23:14:51.133Z,95888.34
2022-10-19T23:17:18.774Z,95890.59
2022-10-19T23:19:46.409Z,95898.72
2022-10-19T23:22:15.519Z,95886.31
2022-10-19T23:24:43.216Z,95882.50
2022-10-19T23:27:10.925Z,95872.78
2022-10-19T23:29:38.579Z,95881.44
2022-10-19T23:32:08.880Z,95880.38
2022-10-19T23:34:36.548Z,95875.50
2022-10-19T23:37:04.215Z,95870.63
2022-10-19T23:39:34.194Z,95874.41
2022-10-19T23:42:01.867Z,95880.91
2022-10-19T23:44:29.515Z,95878.19
2022-10-19T23:46:57.148Z,95872.47
2022-10-19T23:49:24.840Z,95871.38
2022-10-19T23:51:53.907Z,95872.47
2022-10-19T23:54:21.561Z,95876.28
2022-10-19T23:56:50.812Z,95869.44
2022-10-19T23:59:19.009Z,95865.94
